sensor_id;sensor_type;location;lat;lon;timestamp;temperature;humidity
11280;DHT22;5696;50.928;6.960;2022-08-19T05:03:36;20.80;99.90
11280;DHT22;5696;50.928;6.960;2022-08-19T05:06:11;20.90;99.90
11280;DHT22;5696;50.928;6.960;2022-08-19T05:08:39;21.10;99.90
11280;DHT22;5696;50.928;6.960;2022-08-19T05:11:13;21.20;99.90
11280;DHT22;5696;50.928;6.960;2022-08-19T05:13:52;21.20;99.90
11280;DHT22;5696;50.928;6.960;2022-08-19T05:16:20;21.30;99.90
11280;DHT22;5696;50.928;6.960;2022-08-19T05:18:47;21.30;99.90
11280;DHT22;5696;50.928;6.960;2022-08-19T05:21:31;21.40;99.90
11280;DHT22;5696;50.928;6.960;2022-08-19T05:24:17;21.50;99.90
11280;DHT22;5696;50.928;6.960;2022-08-19T05:26:47;21.60;99.90
11280;DHT22;5696;50.928;6.960;2022-08-19T05:29:17;21.60;99.90
11280;DHT22;5696;50.928;6.960;2022-08-19T05:31:43;21.70;99.90
11280;DHT22;5696;50.928;6.960;2022-08-19T05:34:10;21.70;99.90
11280;DHT22;5696;50.928;6.960;2022-08-19T05:36:38;21.80;99.90
11280;DHT22;5696;50.928;6.960;2022-08-19T05:39:06;21.90;99.90
11280;DHT22;5696;50.928;6.960;2022-08-19T05:41:32;21.80;99.90
11280;DHT22;5696;50.928;6.960;2022-08-19T05:44:01;21.80;99.90
11280;DHT22;5696;50.928;6.960;2022-08-19T05:46:27;21.70;99.90
11280;DHT22;5696;50.928;6.960;2022-08-19T05:48:53;21.90;99.90
11280;DHT22;5696;50.928;6.960;2022-08-19T05:51:22;21.90;99.90
11280;DHT22;5696;50.928;6.960;2022-08-19T05:53:49;21.90;99.90
11280;DHT22;5696;50.928;6.960;2022-08-19T05:56:16;22.10;99.90
11280;DHT22;5696;50.928;6.960;2022-08-19T05:58:43;22.20;99.90
11280;DHT22;5696;50.928;6.960;2022-08-19T06:01:16;22.20;99.90
11280;DHT22;5696;50.928;6.960;2022-08-19T06:03:42;22.40;99.90
11280;DHT22;5696;50.928;6.960;2022-08-19T06:06:10;22.60;99.90
11280;DHT22;5696;50.928;6.960;2022-08-19T06:08:36;22.90;99.90
11280;DHT22;5696;50.928;6.960;2022-08-19T06:11:23;23.30;99.90
11280;DHT22;5696;50.928;6.960;2022-08-19T06:13:51;23.80;99.90
11280;DHT22;5696;50.928;6.960;2022-08-19T06:16:19;24.30;99.90
11280;DHT22;5696;50.928;6.960;2022-08-19T06:18:50;24.70;99.90
11280;DHT22;5696;50.928;6.960;2022-08-19T06:21:18;24.90;99.90
11280;DHT22;5696;50.928;6.960;2022-08-19T06:23:44;25.10;99.90
11280;DHT22;5696;50.928;6.960;2022-08-19T06:26:15;25.30;99.90
11280;DHT22;5696;50.928;6.960;2022-08-19T06:28:41;25.50;99.90
11280;DHT22;5696;50.928;6.960;2022-08-19T06:31:15;25.80;99.90
11280;DHT22;5696;50.928;6.960;2022-08-19T06:33:42;25.90;99.90
11280;DHT22;5696;50.928;6.960;2022-08-19T06:36:16;26.10;99.90
11280;DHT22;5696;50.928;6.960;2022-08-19T06:38:42;26.30;99.90
11280;DHT22;5696;50.928;6.960;2022-08-19T06:41:08;26.50;99.90
11280;DHT22;5696;50.928;6.960;2022-08-19T06:43:34;27.00;99.90
11280;DHT22;5696;50.928;6.960;2022-08-19T06:46:01;27.50;99.90
11280;DHT22;5696;50.928;6.960;2022-08-19T06:48:30;27.90;99.90
11280;DHT22;5696;50.928;6.960;2022-08-19T06:50:55;28.10;99.90
11280;DHT22;5696;50.928;6.960;2022-08-19T06:53:21;28.50;99.90
11280;DHT22;5696;50.928;6.960;2022-08-19T06:55:47;28.80;99.90
11280;DHT22;5696;50.928;6.960;2022-08-19T06:58:13;29.50;99.90
11280;DHT22;5696;50.928;6.960;2022-08-19T07:00:39;29.60;99.90
11280;DHT22;5696;50.928;6.960;2022-08-19T07:03:05;29.80;99.90
11280;DHT22;5696;50.928;6.960;2022-08-19T07:05:30;30.00;99.90
11280;DHT22;5696;50.928;6.960;2022-08-19T07:07:56;30.20;99.90
11280;DHT22;5696;50.928;6.960;2022-08-19T07:10:22;30.20;99.90
11280;DHT22;5696;50.928;6.960;2022-08-19T07:12:48;29.80;99.90
11280;DHT22;5696;50.928;6.960;2022-08-19T07:15:15;29.30;99.90
11280;DHT22;5696;50.928;6.960;2022-08-19T07:17:41;28.60;99.90
11280;DHT22;5696;50.928;6.960;2022-08-19T07:20:09;28.30;99.90
11280;DHT22;5696;50.928;6.960;2022-08-19T07:22:37;28.10;99.90
11280;DHT22;5696;50.928;6.960;2022-08-19T07:25:03;27.90;99.90
11280;DHT22;5696;50.928;6.960;2022-08-19T07:27:29;27.90;99.90
11280;DHT22;5696;50.928;6.960;2022-08-19T07:29:55;27.90;99.90
11280;DHT22;5696;50.928;6.960;2022-08-19T07:32:20;28.00;99.90
11280;DHT22;5696;50.928;6.960;2022-08-19T07:34:46;27.70;99.90
11280;DHT22;5696;50.928;6.960;2022-08-19T07:37:12;27.60;99.90
11280;DHT22;5696;50.928;6.960;2022-08-19T07:39:38;27.50;99.90
11280;DHT22;5696;50.928;6.960;2022-08-19T07:42:09;27.30;99.90
11280;DHT22;5696;50.928;6.960;2022-08-19T07:44:36;27.30;99.90
11280;DHT22;5696;50.928;6.960;2022-08-19T07:47:03;27.40;99.90
11280;DHT22;5696;50.928;6.960;2022-08-19T07:49:29;27.30;99.90
11280;DHT22;5696;50.928;6.960;2022-08-19T07:52:05;27.10;99.90
11280;DHT22;5696;50.928;6.960;2022-08-19T07:54:34;27.00;99.90
11280;DHT22;5696;50.928;6.960;2022-08-19T07:57:01;26.70;99.90
11280;DHT22;5696;50.928;6.960;2022-08-19T07:59:28;26.40;99.90
11280;DHT22;5696;50.928;6.960;2022-08-19T08:01:54;26.40;99.90
11280;DHT22;5696;50.928;6.960;2022-08-19T08:04:20;26.50;99.90
11280;DHT22;5696;50.928;6.960;2022-08-19T08:07:06;26.60;99.90
11280;DHT22;5696;50.928;6.960;2022-08-19T08:09:51;26.70;99.90
11280;DHT22;5696;50.928;6.960;2022-08-19T08:12:23;26.50;99.90
11280;DHT22;5696;50.928;6.960;2022-08-19T08:14:59;26.40;99.90
11280;DHT22;5696;50.928;6.960;2022-08-19T08:17:29;26.40;99.90
11280;DHT22;5696;50.928;6.960;2022-08-19T08:19:55;26.20;99.90
11280;DHT22;5696;50.928;6.960;2022-08-19T08:22:22;26.20;99.90
11280;DHT22;5696;50.928;6.960;2022-08-19T08:25:18;26.20;99.90
11280;DHT22;5696;50.928;6.960;2022-08-19T08:27:45;26.50;99.90
11280;DHT22;5696;50.928;6.960;2022-08-19T08:30:15;26.70;99.90
11280;DHT22;5696;50.928;6.960;2022-08-19T08:32:41;26.90;99.90
11280;DHT22;5696;50.928;6.960;2022-08-19T08:35:11;27.00;99.90
11280;DHT22;5696;50.928;6.960;2022-08-19T08:37:37;27.30;99.90
11280;DHT22;5696;50.928;6.960;2022-08-19T08:40:06;27.60;99.90
11280;DHT22;5696;50.928;6.960;2022-08-19T08:42:39;27.60;99.90
11280;DHT22;5696;50.928;6.960;2022-08-19T08:45:14;27.50;99.90
11280;DHT22;5696;50.928;6.960;2022-08-19T08:47:45;27.50;99.90
11280;DHT22;5696;50.928;6.960;2022-08-19T08:50:19;27.60;99.90
11280;DHT22;5696;50.928;6.960;2022-08-19T08:52:48;27.80;99.90
11280;DHT22;5696;50.928;6.960;2022-08-19T08:55:24;27.40;99.90
11280;DHT22;5696;50.928;6.960;2022-08-19T08:57:53;27.90;99.90
11280;DHT22;5696;50.928;6.960;2022-08-19T09:00:26;28.10;99.90
11280;DHT22;5696;50.928;6.960;2022-08-19T09:02:54;28.50;99.90
11280;DHT22;5696;50.928;6.960;2022-08-19T09:05:21;28.60;99.90
11280;DHT22;5696;50.928;6.960;2022-08-19T09:08:14;28.80;99.90
11280;DHT22;5696;50.928;6.960;2022-08-19T09:10:46;29.30;99.90
11280;DHT22;5696;50.928;6.960;2022-08-19T09:13:28;29.60;99.90
11280;DHT22;5696;50.928;6.960;2022-08-19T09:16:06;29.80;99.90
11280;DHT22;5696;50.928;6.960;2022-08-19T09:18:45;30.10;99.90
11280;DHT22;5696;50.928;6.960;2022-08-19T09:21:14;30.20;99.80
11280;DHT22;5696;50.928;6.960;2022-08-19T09:23:43;30.20;99.60
11280;DHT22;5696;50.928;6.960;2022-08-19T09:26:23;30.00;98.70
11280;DHT22;5696;50.928;6.960;2022-08-19T09:29:03;30.10;98.20
11280;DHT22;5696;50.928;6.960;2022-08-19T09:31:33;29.80;98.00
11280;DHT22;5696;50.928;6.960;2022-08-19T09:34:01;30.20;97.80
11280;DHT22;5696;50.928;6.960;2022-08-19T09:36:30;30.10;96.60
11280;DHT22;5696;50.928;6.960;2022-08-19T09:38:58;30.00;96.90
11280;DHT22;5696;50.928;6.960;2022-08-19T09:41:26;30.00;96.30
11280;DHT22;5696;50.928;6.960;2022-08-19T09:43:54;29.80;96.20
11280;DHT22;5696;50.928;6.960;2022-08-19T09:46:27;29.70;96.00
11280;DHT22;5696;50.928;6.960;2022-08-19T09:49:15;29.60;96.10
11280;DHT22;5696;50.928;6.960;2022-08-19T09:51:42;29.20;96.20
11280;DHT22;5696;50.928;6.960;2022-08-19T09:54:08;29.10;97.30
11280;DHT22;5696;50.928;6.960;2022-08-19T09:56:34;29.10;96.80
11280;DHT22;5696;50.928;6.960;2022-08-19T09:59:01;28.90;96.50
11280;DHT22;5696;50.928;6.960;2022-08-19T10:01:29;28.40;97.70
11280;DHT22;5696;50.928;6.960;2022-08-19T10:03:56;28.40;97.70
11280;DHT22;5696;50.928;6.960;2022-08-19T10:06:24;28.50;97.60
11280;DHT22;5696;50.928;6.960;2022-08-19T10:08:51;28.50;96.70
11280;DHT22;5696;50.928;6.960;2022-08-19T10:11:19;28.20;95.60
11280;DHT22;5696;50.928;6.960;2022-08-19T10:13:45;28.10;96.50
11280;DHT22;5696;50.928;6.960;2022-08-19T10:16:13;28.20;96.60
11280;DHT22;5696;50.928;6.960;2022-08-19T10:18:40;28.40;96.80
11280;DHT22;5696;50.928;6.960;2022-08-19T10:21:11;28.40;95.80
11280;DHT22;5696;50.928;6.960;2022-08-19T10:23:37;28.50;96.10
11280;DHT22;5696;50.928;6.960;2022-08-19T10:26:05;28.10;96.70
11280;DHT22;5696;50.928;6.960;2022-08-19T10:28:34;28.30;96.20
11280;DHT22;5696;50.928;6.960;2022-08-19T10:31:15;28.30;96.40
11280;DHT22;5696;50.928;6.960;2022-08-19T10:33:42;28.70;96.00
11280;DHT22;5696;50.928;6.960;2022-08-19T10:36:11;28.80;95.40
11280;DHT22;5696;50.928;6.960;2022-08-19T10:38:38;28.80;95.80
11280;DHT22;5696;50.928;6.960;2022-08-19T10:41:17;28.10;96.80
11280;DHT22;5696;50.928;6.960;2022-08-19T10:43:43;28.50;96.30
11280;DHT22;5696;50.928;6.960;2022-08-19T10:46:13;28.70;95.10
11280;DHT22;5696;50.928;6.960;2022-08-19T10:49:00;29.00;95.00
11280;DHT22;5696;50.928;6.960;2022-08-19T10:51:27;29.40;94.40
11280;DHT22;5696;50.928;6.960;2022-08-19T10:54:11;30.10;93.60
11280;DHT22;5696;50.928;6.960;2022-08-19T10:56:37;30.30;92.50
11280;DHT22;5696;50.928;6.960;2022-08-19T10:59:25;30.20;92.50
11280;DHT22;5696;50.928;6.960;2022-08-19T11:01:53;30.00;92.40
11280;DHT22;5696;50.928;6.960;2022-08-19T11:04:20;29.70;93.00
11280;DHT22;5696;50.928;6.960;2022-08-19T11:06:47;29.70;92.50
11280;DHT22;5696;50.928;6.960;2022-08-19T11:09:18;29.50;92.90
11280;DHT22;5696;50.928;6.960;2022-08-19T11:11:44;29.00;93.70
11280;DHT22;5696;50.928;6.960;2022-08-19T11:14:12;28.60;94.50
11280;DHT22;5696;50.928;6.960;2022-08-19T11:16:40;28.40;95.30
11280;DHT22;5696;50.928;6.960;2022-08-19T11:19:07;28.20;95.70
11280;DHT22;5696;50.928;6.960;2022-08-19T11:21:36;28.20;95.90
11280;DHT22;5696;50.928;6.960;2022-08-19T11:24:11;28.80;94.80
11280;DHT22;5696;50.928;6.960;2022-08-19T11:26:39;29.20;93.70
11280;DHT22;5696;50.928;6.960;2022-08-19T11:29:06;29.20;93.30
11280;DHT22;5696;50.928;6.960;2022-08-19T11:31:49;29.10;93.20
11280;DHT22;5696;50.928;6.960;2022-08-19T11:34:17;28.70;93.40
11280;DHT22;5696;50.928;6.960;2022-08-19T11:36:45;28.60;93.00
11280;DHT22;5696;50.928;6.960;2022-08-19T11:39:13;28.60;92.80
11280;DHT22;5696;50.928;6.960;2022-08-19T11:41:39;29.10;92.40
11280;DHT22;5696;50.928;6.960;2022-08-19T11:44:05;29.40;91.20
11280;DHT22;5696;50.928;6.960;2022-08-19T11:46:32;29.20;91.50
11280;DHT22;5696;50.928;6.960;2022-08-19T11:48:58;29.50;90.90
11280;DHT22;5696;50.928;6.960;2022-08-19T11:51:26;29.40;90.40
11280;DHT22;5696;50.928;6.960;2022-08-19T11:54:04;29.50;90.70
11280;DHT22;5696;50.928;6.960;2022-08-19T11:56:31;29.40;90.40
11280;DHT22;5696;50.928;6.960;2022-08-19T11:58:57;29.00;90.70
11280;DHT22;5696;50.928;6.960;2022-08-19T12:01:25;29.30;90.60
11280;DHT22;5696;50.928;6.960;2022-08-19T12:03:53;29.00;90.20
11280;DHT22;5696;50.928;6.960;2022-08-19T12:06:22;29.10;91.20
11280;DHT22;5696;50.928;6.960;2022-08-19T12:08:57;29.30;91.00
11280;DHT22;5696;50.928;6.960;2022-08-19T12:11:23;29.00;91.30
11280;DHT22;5696;50.928;6.960;2022-08-19T12:13:50;28.80;91.60
11280;DHT22;5696;50.928;6.960;2022-08-19T12:16:26;28.30;91.90
11280;DHT22;5696;50.928;6.960;2022-08-19T12:18:54;28.20;92.30
11280;DHT22;5696;50.928;6.960;2022-08-19T12:21:23;28.80;91.70
11280;DHT22;5696;50.928;6.960;2022-08-19T12:23:54;29.40;90.90
11280;DHT22;5696;50.928;6.960;2022-08-19T12:26:20;29.30;89.80
11280;DHT22;5696;50.928;6.960;2022-08-19T12:28:45;29.10;90.00
11280;DHT22;5696;50.928;6.960;2022-08-19T12:31:13;28.90;90.50
11280;DHT22;5696;50.928;6.960;2022-08-19T12:33:41;28.80;89.90
11280;DHT22;5696;50.928;6.960;2022-08-19T12:36:09;28.70;90.20
11280;DHT22;5696;50.928;6.960;2022-08-19T12:38:36;29.10;89.80
11280;DHT22;5696;50.928;6.960;2022-08-19T12:41:03;29.10;87.40
11280;DHT22;5696;50.928;6.960;2022-08-19T12:43:35;29.00;89.10
11280;DHT22;5696;50.928;6.960;2022-08-19T12:46:03;29.50;87.80
11280;DHT22;5696;50.928;6.960;2022-08-19T12:48:30;29.70;86.20
11280;DHT22;5696;50.928;6.960;2022-08-19T12:50:55;29.80;86.20
11280;DHT22;5696;50.928;6.960;2022-08-19T12:53:22;29.30;87.20
11280;DHT22;5696;50.928;6.960;2022-08-19T12:55:48;29.50;88.60
11280;DHT22;5696;50.928;6.960;2022-08-19T12:58:13;29.30;87.90
11280;DHT22;5696;50.928;6.960;2022-08-19T13:00:39;29.40;86.50
11280;DHT22;5696;50.928;6.960;2022-08-19T13:03:05;29.30;84.40
11280;DHT22;5696;50.928;6.960;2022-08-19T13:05:32;29.20;84.90
11280;DHT22;5696;50.928;6.960;2022-08-19T13:08:01;29.00;85.10
11280;DHT22;5696;50.928;6.960;2022-08-19T13:10:32;28.70;86.40
11280;DHT22;5696;50.928;6.960;2022-08-19T13:13:04;28.40;87.90
11280;DHT22;5696;50.928;6.960;2022-08-19T13:15:33;28.40;88.70
11280;DHT22;5696;50.928;6.960;2022-08-19T13:17:59;28.30;88.60
11280;DHT22;5696;50.928;6.960;2022-08-19T13:20:25;28.30;88.60
11280;DHT22;5696;50.928;6.960;2022-08-19T13:22:51;28.60;86.70
11280;DHT22;5696;50.928;6.960;2022-08-19T13:25:18;28.50;86.30
11280;DHT22;5696;50.928;6.960;2022-08-19T13:27:46;28.60;86.60
11280;DHT22;5696;50.928;6.960;2022-08-19T13:30:14;28.60;84.00
11280;DHT22;5696;50.928;6.960;2022-08-19T13:32:58;28.60;84.30
11280;DHT22;5696;50.928;6.960;2022-08-19T13:35:38;28.70;83.00
11280;DHT22;5696;50.928;6.960;2022-08-19T13:38:04;28.80;82.60
11280;DHT22;5696;50.928;6.960;2022-08-19T13:40:32;28.70;82.70
11280;DHT22;5696;50.928;6.960;2022-08-19T13:43:00;28.70;82.80
11280;DHT22;5696;50.928;6.960;2022-08-19T13:45:27;28.90;81.60
11280;DHT22;5696;50.928;6.960;2022-08-19T13:47:55;28.80;82.10
11280;DHT22;5696;50.928;6.960;2022-08-19T13:50:24;28.80;80.70
11280;DHT22;5696;50.928;6.960;2022-08-19T13:52:51;28.80;80.10
11280;DHT22;5696;50.928;6.960;2022-08-19T13:55:17;28.80;79.20
11280;DHT22;5696;50.928;6.960;2022-08-19T13:57:43;28.80;79.40
11280;DHT22;5696;50.928;6.960;2022-08-19T14:00:15;28.70;80.00
11280;DHT22;5696;50.928;6.960;2022-08-19T14:02:44;28.30;81.30
11280;DHT22;5696;50.928;6.960;2022-08-19T14:05:12;28.10;82.30
11280;DHT22;5696;50.928;6.960;2022-08-19T14:07:39;28.10;82.20
11280;DHT22;5696;50.928;6.960;2022-08-19T14:10:06;28.10;81.90
11280;DHT22;5696;50.928;6.960;2022-08-19T14:12:32;28.20;81.40
11280;DHT22;5696;50.928;6.960;2022-08-19T14:14:59;28.00;82.20
11280;DHT22;5696;50.928;6.960;2022-08-19T14:17:25;28.00;80.70
11280;DHT22;5696;50.928;6.960;2022-08-19T14:19:57;27.90;80.00
11280;DHT22;5696;50.928;6.960;2022-08-19T14:22:22;27.90;80.30
11280;DHT22;5696;50.928;6.960;2022-08-19T14:24:48;27.80;83.20
11280;DHT22;5696;50.928;6.960;2022-08-19T14:27:15;27.70;83.90
11280;DHT22;5696;50.928;6.960;2022-08-19T14:29:41;27.70;84.50
11280;DHT22;5696;50.928;6.960;2022-08-19T14:32:07;27.90;83.90
11280;DHT22;5696;50.928;6.960;2022-08-19T14:34:33;27.80;83.70
11280;DHT22;5696;50.928;6.960;2022-08-19T14:37:02;27.80;83.60
11280;DHT22;5696;50.928;6.960;2022-08-19T14:39:28;27.80;84.30
11280;DHT22;5696;50.928;6.960;2022-08-19T14:41:54;28.20;82.80
11280;DHT22;5696;50.928;6.960;2022-08-19T14:44:19;28.60;83.10
11280;DHT22;5696;50.928;6.960;2022-08-19T14:46:45;28.80;80.80
11280;DHT22;5696;50.928;6.960;2022-08-19T14:49:21;28.80;80.40
11280;DHT22;5696;50.928;6.960;2022-08-19T14:51:47;28.60;80.40
11280;DHT22;5696;50.928;6.960;2022-08-19T14:54:13;28.50;80.90
11280;DHT22;5696;50.928;6.960;2022-08-19T14:56:40;28.30;82.00
11280;DHT22;5696;50.928;6.960;2022-08-19T14:59:05;28.20;82.70
11280;DHT22;5696;50.928;6.960;2022-08-19T15:01:31;28.30;80.60
11280;DHT22;5696;50.928;6.960;2022-08-19T15:03:57;28.60;80.30
11280;DHT22;5696;50.928;6.960;2022-08-19T15:06:26;28.50;79.30
11280;DHT22;5696;50.928;6.960;2022-08-19T15:08:52;28.60;79.60
11280;DHT22;5696;50.928;6.960;2022-08-19T15:11:22;28.70;78.00
11280;DHT22;5696;50.928;6.960;2022-08-19T15:13:49;28.90;77.20
11280;DHT22;5696;50.928;6.960;2022-08-19T15:16:16;29.00;76.10
11280;DHT22;5696;50.928;6.960;2022-08-19T15:18:43;28.90;76.00
11280;DHT22;5696;50.928;6.960;2022-08-19T15:21:13;28.90;75.10
11280;DHT22;5696;50.928;6.960;2022-08-19T15:23:43;28.80;75.40
11280;DHT22;5696;50.928;6.960;2022-08-19T15:26:10;28.80;74.90
11280;DHT22;5696;50.928;6.960;2022-08-19T15:28:36;28.70;75.50
11280;DHT22;5696;50.928;6.960;2022-08-19T15:31:03;28.50;76.30
11280;DHT22;5696;50.928;6.960;2022-08-19T15:33:31;28.10;77.50
11280;DHT22;5696;50.928;6.960;2022-08-19T15:35:57;28.10;77.70
11280;DHT22;5696;50.928;6.960;2022-08-19T15:38:23;28.40;76.30
11280;DHT22;5696;50.928;6.960;2022-08-19T15:40:51;28.50;75.70
11280;DHT22;5696;50.928;6.960;2022-08-19T15:43:18;28.60;75.10
11280;DHT22;5696;50.928;6.960;2022-08-19T15:45:44;28.70;74.70
11280;DHT22;5696;50.928;6.960;2022-08-19T15:48:10;29.00;74.10
11280;DHT22;5696;50.928;6.960;2022-08-19T15:50:36;29.20;74.40
11280;DHT22;5696;50.928;6.960;2022-08-19T15:53:07;29.20;74.90
11280;DHT22;5696;50.928;6.960;2022-08-19T15:55:36;29.30;74.90
11280;DHT22;5696;50.928;6.960;2022-08-19T15:58:09;29.10;74.90
11280;DHT22;5696;50.928;6.960;2022-08-19T16:00:53;29.30;75.50
11280;DHT22;5696;50.928;6.960;2022-08-19T16:03:37;29.20;76.20
11280;DHT22;5696;50.928;6.960;2022-08-19T16:06:30;29.00;77.30
11280;DHT22;5696;50.928;6.960;2022-08-19T16:08:58;28.80;78.70
11280;DHT22;5696;50.928;6.960;2022-08-19T16:11:26;28.80;79.60
11280;DHT22;5696;50.928;6.960;2022-08-19T16:13:55;28.70;79.90
11280;DHT22;5696;50.928;6.960;2022-08-19T16:16:24;28.60;80.90
11280;DHT22;5696;50.928;6.960;2022-08-19T16:18:53;28.60;81.40
11280;DHT22;5696;50.928;6.960;2022-08-19T16:21:21;28.50;81.90
11280;DHT22;5696;50.928;6.960;2022-08-19T16:23:48;28.50;82.00
11280;DHT22;5696;50.928;6.960;2022-08-19T16:26:16;28.30;83.00
11280;DHT22;5696;50.928;6.960;2022-08-19T16:28:42;28.20;83.80
11280;DHT22;5696;50.928;6.960;2022-08-19T16:31:08;28.10;84.10
11280;DHT22;5696;50.928;6.960;2022-08-19T16:33:34;28.00;84.40
11280;DHT22;5696;50.928;6.960;2022-08-19T16:36:00;27.90;85.40
11280;DHT22;5696;50.928;6.960;2022-08-19T16:38:26;28.00;84.90
11280;DHT22;5696;50.928;6.960;2022-08-19T16:40:52;27.90;85.20
11280;DHT22;5696;50.928;6.960;2022-08-19T16:43:23;27.80;85.50
11280;DHT22;5696;50.928;6.960;2022-08-19T16:45:50;27.70;86.10
11280;DHT22;5696;50.928;6.960;2022-08-19T16:48:20;27.70;86.40
11280;DHT22;5696;50.928;6.960;2022-08-19T16:50:46;27.30;88.20
11280;DHT22;5696;50.928;6.960;2022-08-19T16:53:24;27.10;88.50
11280;DHT22;5696;50.928;6.960;2022-08-19T16:55:57;26.80;89.50
11280;DHT22;5696;50.928;6.960;2022-08-19T16:58:25;26.70;90.10
11280;DHT22;5696;50.928;6.960;2022-08-19T17:00:52;26.60;90.60
11280;DHT22;5696;50.928;6.960;2022-08-19T17:03:19;26.60;91.00
11280;DHT22;5696;50.928;6.960;2022-08-19T17:05:50;26.50;91.90
11280;DHT22;5696;50.928;6.960;2022-08-19T17:08:21;26.50;92.10
11280;DHT22;5696;50.928;6.960;2022-08-19T17:10:48;26.50;92.40
11280;DHT22;5696;50.928;6.960;2022-08-19T17:13:14;26.50;92.70
11280;DHT22;5696;50.928;6.960;2022-08-19T17:15:41;26.40;93.20
11280;DHT22;5696;50.928;6.960;2022-08-19T17:18:09;26.40;93.60
11280;DHT22;5696;50.928;6.960;2022-08-19T17:20:36;26.40;93.80
11280;DHT22;5696;50.928;6.960;2022-08-19T17:23:02;26.20;94.10
11280;DHT22;5696;50.928;6.960;2022-08-19T17:25:29;26.20;94.40
11280;DHT22;5696;50.928;6.960;2022-08-19T17:27:56;26.10;94.80
11280;DHT22;5696;50.928;6.960;2022-08-19T17:30:23;26.10;95.10
11280;DHT22;5696;50.928;6.960;2022-08-19T17:32:49;26.10;95.30
11280;DHT22;5696;50.928;6.960;2022-08-19T17:35:17;26.00;95.60
11280;DHT22;5696;50.928;6.960;2022-08-19T17:37:46;25.90;96.20
11280;DHT22;5696;50.928;6.960;2022-08-19T17:40:13;25.80;97.20
11280;DHT22;5696;50.928;6.960;2022-08-19T17:42:39;25.70;98.00
11280;DHT22;5696;50.928;6.960;2022-08-19T17:45:07;25.70;99.50
11280;DHT22;5696;50.928;6.960;2022-08-19T17:47:33;25.50;99.90
11280;DHT22;5696;50.928;6.960;2022-08-19T17:49:59;25.50;99.90
11280;DHT22;5696;50.928;6.960;2022-08-19T17:52:25;25.50;99.90
11280;DHT22;5696;50.928;6.960;2022-08-19T17:54:51;25.50;99.90
11280;DHT22;5696;50.928;6.960;2022-08-19T17:57:16;25.60;99.90
11280;DHT22;5696;50.928;6.960;2022-08-19T17:59:42;25.60;99.90
11280;DHT22;5696;50.928;6.960;2022-08-19T18:02:10;25.70;99.90
11280;DHT22;5696;50.928;6.960;2022-08-19T18:04:36;25.70;99.90
11280;DHT22;5696;50.928;6.960;2022-08-19T18:07:02;25.70;99.90
11280;DHT22;5696;50.928;6.960;2022-08-19T18:09:31;25.60;99.90
11280;DHT22;5696;50.928;6.960;2022-08-19T18:11:58;25.60;99.90
11280;DHT22;5696;50.928;6.960;2022-08-19T18:14:26;25.50;99.90
11280;DHT22;5696;50.928;6.960;2022-08-19T18:16:53;25.30;99.90
11280;DHT22;5696;50.928;6.960;2022-08-19T18:19:23;25.30;99.90
11280;DHT22;5696;50.928;6.960;2022-08-19T18:21:49;25.20;99.90
11280;DHT22;5696;50.928;6.960;2022-08-19T18:24:15;25.10;99.90
11280;DHT22;5696;50.928;6.960;2022-08-19T18:26:40;25.10;99.90
11280;DHT22;5696;50.928;6.960;2022-08-19T18:29:07;25.10;99.90
11280;DHT22;5696;50.928;6.960;2022-08-19T18:31:34;25.00;99.90
11280;DHT22;5696;50.928;6.960;2022-08-19T18:34:00;25.00;99.90
11280;DHT22;5696;50.928;6.960;2022-08-19T18:36:26;24.90;99.90
11280;DHT22;5696;50.928;6.960;2022-08-19T18:38:53;24.90;99.90
11280;DHT22;5696;50.928;6.960;2022-08-19T18:41:38;24.80;99.90
11280;DHT22;5696;50.928;6.960;2022-08-19T18:44:22;24.80;99.90
11280;DHT22;5696;50.928;6.960;2022-08-19T18:47:06;24.80;99.90
11280;DHT22;5696;50.928;6.960;2022-08-19T18:49:51;24.70;99.90
11280;DHT22;5696;50.928;6.960;2022-08-19T18:52:17;24.60;99.90
11280;DHT22;5696;50.928;6.960;2022-08-19T18:54:44;24.60;99.90
11280;DHT22;5696;50.928;6.960;2022-08-19T18:57:16;24.50;99.90
11280;DHT22;5696;50.928;6.960;2022-08-19T18:59:49;24.50;99.90
11280;DHT22;5696;50.928;6.960;2022-08-19T19:02:15;24.40;99.90
11280;DHT22;5696;50.928;6.960;2022-08-19T19:04:43;24.40;99.90
11280;DHT22;5696;50.928;6.960;2022-08-19T19:07:10;24.40;99.90
11280;DHT22;5696;50.928;6.960;2022-08-19T19:09:38;24.40;99.90
11280;DHT22;5696;50.928;6.960;2022-08-19T19:12:07;24.40;99.90
11280;DHT22;5696;50.928;6.960;2022-08-19T19:14:37;24.30;99.90
11280;DHT22;5696;50.928;6.960;2022-08-19T19:17:09;24.30;99.90
11280;DHT22;5696;50.928;6.960;2022-08-19T19:19:36;24.30;99.90
11280;DHT22;5696;50.928;6.960;2022-08-19T19:22:09;24.20;99.90
11280;DHT22;5696;50.928;6.960;2022-08-19T19:24:36;24.20;99.90
11280;DHT22;5696;50.928;6.960;2022-08-19T19:27:05;24.20;99.90
11280;DHT22;5696;50.928;6.960;2022-08-19T19:29:33;24.20;99.90
11280;DHT22;5696;50.928;6.960;2022-08-19T19:32:01;24.20;99.90
11280;DHT22;5696;50.928;6.960;2022-08-19T19:34:27;24.20;99.90
11280;DHT22;5696;50.928;6.960;2022-08-19T19:36:53;24.10;99.90
11280;DHT22;5696;50.928;6.960;2022-08-19T19:39:19;23.90;99.90
11280;DHT22;5696;50.928;6.960;2022-08-19T19:41:46;23.80;99.90
11280;DHT22;5696;50.928;6.960;2022-08-19T19:44:11;23.70;99.90
11280;DHT22;5696;50.928;6.960;2022-08-19T19:46:39;23.60;99.90
11280;DHT22;5696;50.928;6.960;2022-08-19T19:49:07;23.50;99.90
11280;DHT22;5696;50.928;6.960;2022-08-19T19:51:34;23.40;99.90
11280;DHT22;5696;50.928;6.960;2022-08-19T19:54:01;23.40;99.90
11280;DHT22;5696;50.928;6.960;2022-08-19T19:56:26;23.50;99.90
11280;DHT22;5696;50.928;6.960;2022-08-19T19:58:52;23.50;99.90
11280;DHT22;5696;50.928;6.960;2022-08-19T20:01:19;23.40;99.90
11280;DHT22;5696;50.928;6.960;2022-08-19T20:03:46;23.40;99.90
11280;DHT22;5696;50.928;6.960;2022-08-19T20:06:13;23.40;99.90
11280;DHT22;5696;50.928;6.960;2022-08-19T20:08:39;23.40;99.90
11280;DHT22;5696;50.928;6.960;2022-08-19T20:11:31;23.40;99.90
11280;DHT22;5696;50.928;6.960;2022-08-19T20:14:01;23.40;99.90
11280;DHT22;5696;50.928;6.960;2022-08-19T20:16:29;23.30;99.90
11280;DHT22;5696;50.928;6.960;2022-08-19T20:18:56;23.30;99.90
11280;DHT22;5696;50.928;6.960;2022-08-19T20:21:24;23.20;99.90
11280;DHT22;5696;50.928;6.960;2022-08-19T20:23:55;23.20;99.90
11280;DHT22;5696;50.928;6.960;2022-08-19T20:26:24;23.20;99.90
11280;DHT22;5696;50.928;6.960;2022-08-19T20:28:50;23.00;99.90
11280;DHT22;5696;50.928;6.960;2022-08-19T20:31:17;22.90;99.90
11280;DHT22;5696;50.928;6.960;2022-08-19T20:33:53;22.80;99.90
11280;DHT22;5696;50.928;6.960;2022-08-19T20:36:19;22.70;99.90
11280;DHT22;5696;50.928;6.960;2022-08-19T20:38:44;22.70;99.90
11280;DHT22;5696;50.928;6.960;2022-08-19T20:41:11;22.60;99.90
11280;DHT22;5696;50.928;6.960;2022-08-19T20:43:37;22.60;99.90
11280;DHT22;5696;50.928;6.960;2022-08-19T20:46:03;22.60;99.90
11280;DHT22;5696;50.928;6.960;2022-08-19T20:48:29;22.60;99.90
11280;DHT22;5696;50.928;6.960;2022-08-19T20:50:56;22.60;99.90
11280;DHT22;5696;50.928;6.960;2022-08-19T20:53:24;22.50;99.90
11280;DHT22;5696;50.928;6.960;2022-08-19T20:55:52;22.50;99.90
11280;DHT22;5696;50.928;6.960;2022-08-19T20:58:19;22.50;99.90